Time;durP1;ratioP1;P1;durP2;ratioP2;P2;SDS_P1;SDS_P2;PMS_P1;PMS_P2;Temp;Humidity;BMP_temperature;BMP_pressure;BME280_temperature;BME280_humidity;BME280_pressure;Samples;Min_cycle;Max_cycle;Signal;HPM_P1;HPM_P2
2023/12/08 00:01:37;;;;;;;19.70;10.88;;;;;;;;;;4813305;29;20509;-70
2023/12/08 00:04:03;;;;;;;19.98;10.27;;;;;;;;;;4824741;29;20126;-70
2023/12/08 00:06:29;;;;;;;18.48;9.57;;;;;;;;;;4827684;29;20555;-70
2023/12/08 00:08:55;;;;;;;18.60;9.95;;;;;;;;;;4812707;29;20060;-70
2023/12/08 00:11:21;;;;;;;15.65;7.10;;;;;;;;;;4812796;29;20057;-70
2023/12/08 00:13:47;;;;;;;19.85;9.07;;;;;;;;;;4812460;29;20435;-70
2023/12/08 00:16:13;;;;;;;14.77;7.53;;;;;;;;;;4812681;29;20126;-70
2023/12/08 00:18:39;;;;;;;14.60;6.28;;;;;;;;;;5080214;24;20030;-70
2023/12/08 00:21:06;;;;;;;16.95;7.82;;;;;;;;;;4848833;29;20066;-69
2023/12/08 00:23:32;;;;;;;17.80;6.85;;;;;;;;;;4832419;29;20045;-69
2023/12/08 00:25:58;;;;;;;11.27;6.15;;;;;;;;;;4833723;29;20535;-69
2023/12/08 00:28:24;;;;;;;15.90;7.65;;;;;;;;;;4833957;29;20054;-69
2023/12/08 00:30:50;;;;;;;15.65;8.10;;;;;;;;;;4834164;29;20082;-69
2023/12/08 00:33:16;;;;;;;12.65;7.85;;;;;;;;;;4834257;29;20619;-70
2023/12/08 00:35:42;;;;;;;17.35;8.73;;;;;;;;;;4834005;29;20064;-69
2023/12/08 00:38:09;;;;;;;14.30;8.27;;;;;;;;;;4851087;29;20531;-69
2023/12/08 00:40:36;;;;;;;19.75;9.90;;;;;;;;;;4834307;29;20057;-70
2023/12/08 00:43:02;;;;;;;15.35;10.45;;;;;;;;;;4850841;29;20121;-70
2023/12/08 00:45:28;;;;;;;16.50;9.55;;;;;;;;;;4850722;29;20120;-69
2023/12/08 00:47:54;;;;;;;20.77;9.82;;;;;;;;;;4834236;29;20049;-69
2023/12/08 00:50:20;;;;;;;19.63;9.48;;;;;;;;;;4850737;29;20378;-70
2023/12/08 00:52:46;;;;;;;17.55;9.32;;;;;;;;;;4833718;29;20049;-70
2023/12/08 00:55:13;;;;;;;14.73;6.78;;;;;;;;;;4834081;29;20049;-69
2023/12/08 00:57:38;;;;;;;18.40;10.20;;;;;;;;;;4851433;29;20487;-69
2023/12/08 01:00:05;;;;;;;14.52;7.53;;;2.50;99.90;;;;;;4837819;29;20045;-69
2023/12/08 01:02:31;;;;;;;12.93;7.45;;;;;;;;;;4837853;29;20050;-69
2023/12/08 01:04:57;;;;;;;16.27;7.57;;;;;;;;;;4854122;29;20052;-70
2023/12/08 01:07:23;;;;;;;12.40;7.10;;;;;;;;;;4837182;29;20420;-69
2023/12/08 01:09:49;;;;;;;18.85;9.57;;;;;;;;;;4836858;29;20088;-69
2023/12/08 01:12:16;;;;;;;21.08;9.93;;;;;;;;;;4853765;29;20045;-70
2023/12/08 01:14:42;;;;;;;17.88;8.68;;;;;;;;;;4853799;29;20049;-70
2023/12/08 01:17:08;;;;;;;17.20;9.43;;;;;;;;;;4835575;29;20093;-70
2023/12/08 01:19:34;;;;;;;14.57;7.28;;;;;;;;;;4836797;29;20057;-69
2023/12/08 01:22:00;;;;;;;14.90;7.43;;;;;;;;;;4836766;29;20488;-69
2023/12/08 01:24:26;;;;;;;18.05;11.07;;;;;;;;;;4836485;29;20049;-70
2023/12/08 01:26:52;;;;;;;22.38;11.00;;;;;;;;;;4836549;29;20454;-70
2023/12/08 01:29:18;;;;;;;19.38;10.13;;;;;;;;;;4837041;29;20053;-70
2023/12/08 01:31:45;;;;;;;19.58;11.00;;;;;;;;;;4836478;29;20092;-70
2023/12/08 01:34:11;;;;;;;22.65;9.77;;;;;;;;;;4835625;29;20057;-69
2023/12/08 01:36:37;;;;;;;16.88;8.60;;;;;;;;;;4836613;29;20073;-70
2023/12/08 01:39:03;;;;;;;18.20;10.95;;;;;;;;;;4836203;29;20049;-69
2023/12/08 01:41:29;;;;;;;19.63;10.02;;;;;;;;;;4836589;29;20073;-69
2023/12/08 01:43:55;;;;;;;19.20;10.27;;;;;;;;;;4829928;29;20181;-70
2023/12/08 01:46:21;;;;;;;18.02;9.80;;;;;;;;;;4836241;29;20141;-70
2023/12/08 01:48:48;;;;;;;20.48;10.77;;;;;;;;;;4836095;29;20053;-70
2023/12/08 01:51:14;;;;;;;19.90;10.95;;;;;;;;;;4836702;29;20072;-70
2023/12/08 01:53:41;;;;;;;14.70;7.88;;;;;;;;;;4835979;29;20412;-69
2023/12/08 01:56:08;;;;;;;19.58;10.15;;;;;;;;;;4836314;29;20583;-70
2023/12/08 01:58:34;;;;;;;21.20;11.55;;;;;;;;;;4835996;29;20050;-70
2023/12/08 02:01:04;;;;;;;22.95;9.50;;;;;;;;;;4836228;29;20129;-70
2023/12/08 02:03:33;;;;;;;20.73;10.63;;;;;;;;;;4836624;29;20393;-69
2023/12/08 02:06:00;;;;;;;22.88;11.43;;;;;;;;;;4853004;29;20085;-70
2023/12/08 02:08:27;;;;;;;21.13;11.32;;;;;;;;;;4836416;29;20049;-70
2023/12/08 02:10:53;;;;;;;19.88;10.65;;;;;;;;;;4851768;29;20514;-70
2023/12/08 02:13:20;;;;;;;23.45;12.48;;;;;;;;;;4835964;29;20078;-70
2023/12/08 02:15:46;;;;;;;17.73;9.70;;;;;;;;;;4836369;29;20061;-70
2023/12/08 02:18:14;;;;;;;21.88;10.77;;;;;;;;;;4836151;29;20049;-70
2023/12/08 02:20:41;;;;;;;20.10;11.57;;;;;;;;;;4835812;29;20521;-70
2023/12/08 02:23:07;;;;;;;19.67;9.90;;;;;;;;;;4835817;29;20057;-70
2023/12/08 02:25:34;;;;;;;19.67;12.07;;;;;;;;;;4835673;29;20503;-70
2023/12/08 02:28:01;;;;;;;22.00;10.38;;;;;;;;;;4835655;29;20058;-70
2023/12/08 02:30:27;;;;;;;19.13;10.75;;;;;;;;;;4835932;29;20056;-70
2023/12/08 02:33:07;;;;;;;21.50;12.15;;;;;;;;;;4835720;29;20432;-70
2023/12/08 02:35:34;;;;;;;22.23;11.85;;;;;;;;;;4835220;29;20084;-70
2023/12/08 02:38:02;;;;;;;17.58;10.48;;;;;;;;;;4835334;29;20800;-71
2023/12/08 02:43:50;;;;;;;25.02;12.88;;;;;;;;;;4851215;29;20085;-70
2023/12/08 02:46:16;;;;;;;23.92;12.00;;;;;;;;;;4835298;29;20049;-70
2023/12/08 02:48:42;;;;;;;23.80;12.13;;;;;;;;;;4835590;29;20149;-70
2023/12/08 02:51:08;;;;;;;21.90;11.90;;;;;;;;;;4835490;29;20841;-70
2023/12/08 02:53:34;;;;;;;22.30;12.00;;;;;;;;;;4835173;29;20056;-70
2023/12/08 02:56:00;;;;;;;22.38;11.18;;;;;;;;;;4851559;29;20088;-70
2023/12/08 02:58:26;;;;;;;17.17;10.15;;;;;;;;;;4835319;29;20042;-70
2023/12/08 03:00:52;;;;;;;23.05;11.50;;;;;;;;;;4835221;29;20090;-70
2023/12/08 03:03:18;;;;;;;22.33;12.32;;;;;;;;;;4835360;29;20049;-70
2023/12/08 03:05:44;;;;;;;23.02;12.38;;;;;;;;;;4835329;29;20164;-70
2023/12/08 03:08:10;;;;;;;16.20;9.13;;;;;;;;;;4835437;29;20427;-70
2023/12/08 03:10:36;;;;;;;21.00;12.70;;;;;;;;;;4835311;29;20061;-71
2023/12/08 03:13:02;;;;;;;20.98;10.93;;;;;;;;;;4851576;29;20129;-70
2023/12/08 03:15:28;;;;;;;23.90;11.73;;;;;;;;;;4835579;29;20488;-70
2023/12/08 03:17:54;;;;;;;24.17;12.57;;;;;;;;;;4835411;29;20056;-70
2023/12/08 03:20:20;;;;;;;23.50;12.55;;;;;;;;;;4835137;29;20161;-70
2023/12/08 03:22:46;;;;;;;24.92;11.68;;;;;;;;;;4851515;29;20136;-70
2023/12/08 03:25:12;;;;;;;21.23;10.50;;;;;;;;;;4835272;29;20340;-70
2023/12/08 03:27:38;;;;;;;13.35;7.03;;;;;;;;;;4834892;29;20492;-70
2023/12/08 03:30:05;;;;;;;23.10;12.05;;;;;;;;;;4834694;29;20053;-70
2023/12/08 03:32:31;;;;;;;26.40;14.18;;;;;;;;;;4834712;29;20056;-70
2023/12/08 03:34:58;;;;;;;23.90;12.65;;;;;;;;;;4851768;29;20049;-70
2023/12/08 03:37:24;;;;;;;22.98;12.55;;;;;;;;;;4834333;29;20045;-70
2023/12/08 03:39:51;;;;;;;28.73;13.02;;;;;;;;;;4834441;29;20452;-70
2023/12/08 03:42:17;;;;;;;20.63;11.15;;;;;;;;;;4834093;29;20057;-70
2023/12/08 03:44:43;;;;;;;14.77;7.97;;;;;;;;;;4833735;29;20129;-70
2023/12/08 03:50:25;;;;;;;13.05;7.65;;;;;;;;;;5300457;24;20053;-70
2023/12/08 03:52:54;;;;;;;19.55;10.73;;;;;;;;;;4816100;29;20058;-70
2023/12/08 03:55:20;;;;;;;22.13;10.00;;;;;;;;;;4816469;29;20488;-70
2023/12/08 03:57:46;;;;;;;30.30;14.18;;;;;;;;;;4816553;29;20065;-70
2023/12/08 04:00:12;;;;;;;19.30;9.05;;;;;;;;;;4831493;29;20041;-70
2023/12/08 04:02:38;;;;;;;26.70;11.98;;;;;;;;;;4832602;29;20552;-71
2023/12/08 04:05:05;;;;;;;24.65;11.85;;;;;;;;;;4816616;29;20049;-71
2023/12/08 04:07:31;;;;;;;31.85;14.73;;;;;;;;;;4816081;29;20484;-71
2023/12/08 04:09:57;;;;;;;26.02;12.93;;;;;;;;;;4832675;29;20105;-70
2023/12/08 04:12:23;;;;;;;18.55;9.65;;;;;;;;;;4832952;29;20050;-70
2023/12/08 04:14:49;;;;;;;26.45;13.27;;;;;;;;;;4816023;29;21194;-71
2023/12/08 04:17:15;;;;;;;27.15;14.38;;;;;;;;;;4815916;29;20565;-71
2023/12/08 04:19:41;;;;;;;19.58;10.18;;;;;;;;;;4831089;29;20054;-70
2023/12/08 04:22:07;;;;;;;31.67;14.65;;;;;;;;;;4815633;29;20049;-70
2023/12/08 04:24:33;;;;;;;29.88;14.13;;;;;;;;;;4810797;29;20581;-70
2023/12/08 04:26:59;;;;;;;20.33;11.52;;;;;;;;;;4832025;29;20053;-70
2023/12/08 04:29:25;;;;;;;24.30;12.13;;;;;;;;;;4810034;29;20058;-70
2023/12/08 04:31:51;;;;;;;26.05;12.30;;;;;;;;;;4800202;29;21186;-70
2023/12/08 04:34:17;;;;;;;28.67;15.32;;;;;;;;;;4814456;29;20062;-70
2023/12/08 04:36:43;;;;;;;27.38;14.32;;;;;;;;;;4817971;29;20436;-71
2023/12/08 04:39:09;;;;;;;31.83;16.67;;;;;;;;;;4834807;29;20054;-70
2023/12/08 04:41:35;;;;;;;16.00;9.40;;;;;;;;;;4818933;29;20041;-70
2023/12/08 04:44:01;;;;;;;28.35;12.55;;;;;;;;;;4818716;29;20153;-70
2023/12/08 04:46:27;;;;;;;31.63;15.98;;;;;;;;;;4817917;29;20103;-71
2023/12/08 04:48:53;;;;;;;32.22;15.38;;;;;;;;;;4818421;29;20099;-70
2023/12/08 04:51:19;;;;;;;24.95;12.73;;;;;;;;;;4818358;29;20081;-71
2023/12/08 04:53:45;;;;;;;30.75;15.70;;;;;;;;;;4817760;29;20637;-70
2023/12/08 04:56:11;;;;;;;26.05;13.45;;;;;;;;;;4817610;29;20572;-71
2023/12/08 04:58:39;;;;;;;24.23;11.68;;;;;;;;;;4817605;29;20501;-71
2023/12/08 05:01:05;;;;;;;30.33;15.32;;;;;;;;;;4835095;29;20129;-70
2023/12/08 05:03:31;;;;;;;29.10;15.00;;;;;;;;;;4818665;29;20524;-71
2023/12/08 05:05:57;;;;;;;32.55;15.77;;;;;;;;;;4818474;29;20077;-70
2023/12/08 05:08:23;;;;;;;25.75;11.18;;;;;;;;;;4819071;29;20464;-71
2023/12/08 05:10:49;;;;;;;29.63;13.98;;;;;;;;;;4818108;29;20054;-71
2023/12/08 05:13:15;;;;;;;35.53;16.65;;;;;;;;;;4818346;29;20446;-71
2023/12/08 05:15:41;;;;;;;28.38;14.50;;;;;;;;;;4817247;29;20183;-71
2023/12/08 05:18:07;;;;;;;29.90;15.00;;;;;;;;;;4818812;29;20419;-71
2023/12/08 05:20:33;;;;;;;27.17;12.77;;;;;;;;;;4819292;29;20042;-70
2023/12/08 05:22:59;;;;;;;27.60;13.85;;;;;;;;;;4835839;29;20078;-71
2023/12/08 05:25:25;;;;;;;31.20;15.80;;;;;;;;;;4815419;29;20438;-71
2023/12/08 05:27:51;;;;;;;28.27;14.18;;;;;;;;;;4819116;29;20495;-71
2023/12/08 05:30:17;;;;;;;31.80;16.23;;;;;;;;;;4804039;29;20462;-70
2023/12/08 05:32:43;;;;;;;26.55;11.80;;;;;;;;;;4819354;29;20497;-71
2023/12/08 05:35:10;;;;;;;23.65;13.15;;;;;;;;;;4816619;29;20056;-71
2023/12/08 05:37:36;;;;;;;26.67;12.93;;;;;;;;;;4818946;29;20070;-71
2023/12/08 05:40:02;;;;;;;28.83;13.38;;;;;;;;;;4834410;29;20795;-70
2023/12/08 05:42:28;;;;;;;29.35;14.65;;;;;;;;;;4818371;29;20052;-71
2023/12/08 05:44:53;;;;;;;26.90;13.07;;;;;;;;;;4813749;29;20544;-71
2023/12/08 05:47:19;;;;;;;28.20;14.43;;;;;;;;;;4817805;29;20137;-71
2023/12/08 05:49:45;;;;;;;28.70;12.40;;;;;;;;;;4817222;29;20062;-71
2023/12/08 05:52:11;;;;;;;23.60;12.50;;;;;;;;;;4815306;29;20413;-71
2023/12/08 05:54:37;;;;;;;31.77;15.32;;;;;;;;;;4816344;29;20102;-71
2023/12/08 05:57:03;;;;;;;25.27;12.93;;;;;;;;;;4817216;29;20065;-71
2023/12/08 05:59:29;;;;;;;33.47;15.27;;;;;;;;;;4814868;29;20525;-71
2023/12/08 06:01:55;;;;;;;31.15;15.10;;;;;;;;;;4817058;29;20191;-71
2023/12/08 06:04:21;;;;;;;27.45;12.77;;;;;;;;;;4817391;29;20049;-71
2023/12/08 06:06:48;;;;;;;26.20;12.77;;;;;;;;;;4817123;29;20497;-71
2023/12/08 06:09:14;;;;;;;28.55;13.30;;;;;;;;;;4826973;29;20057;-71
2023/12/08 06:11:40;;;;;;;35.80;15.85;;;;;;;;;;4817744;29;20114;-71
2023/12/08 06:14:06;;;;;;;27.65;14.52;;;;;;;;;;4817097;29;20045;-71
2023/12/08 06:16:33;;;;;;;31.27;14.32;;;;;;;;;;4817605;29;20374;-71
2023/12/08 06:18:59;;;;;;;33.22;17.13;;;;;;;;;;4802401;29;20046;-71
2023/12/08 06:21:25;;;;;;;27.73;13.05;;;;;;;;;;4833736;29;20050;-70
2023/12/08 06:23:51;;;;;;;30.10;14.63;;;;;;;;;;4833997;29;20046;-71
2023/12/08 06:26:17;;;;;;;34.88;15.32;;;;;;;;;;4816640;29;20383;-71
2023/12/08 06:28:43;;;;;;;34.03;15.60;;;;;;;;;;4817041;29;20053;-71
2023/12/08 06:31:09;;;;;;;37.17;16.52;;;;;;;;;;4813804;29;20105;-71
2023/12/08 06:33:36;;;;;;;34.85;16.85;;;;;;;;;;4816604;29;20056;-71
2023/12/08 06:36:03;;;;;;;30.83;16.10;;;;;;;;;;4812554;29;20602;-71
2023/12/08 06:38:29;;;;;;;22.20;11.68;;;;;;;;;;4813002;29;20112;-70
2023/12/08 06:40:55;;;;;;;36.40;17.00;;;;;;;;;;4821527;29;20046;-71
2023/12/08 06:43:21;;;;;;;34.22;16.13;;;;;;;;;;4830924;29;20053;-71
2023/12/08 06:45:47;;;;;;;25.77;11.75;;;;;;;;;;4824922;29;20536;-70
2023/12/08 06:48:13;;;;;;;28.60;14.75;;;;;;;;;;4815025;29;20085;-70
2023/12/08 06:50:39;;;;;;;21.85;10.75;;;;;;;;;;4816098;29;20101;-71
2023/12/08 06:53:05;;;;;;;23.48;10.40;;;;;;;;;;4830069;29;20499;-71
2023/12/08 06:55:31;;;;;;;37.65;17.20;;;;;;;;;;4815882;29;20503;-71
2023/12/08 06:57:57;;;;;;;32.83;17.42;;;;;;;;;;4816638;29;20050;-70
2023/12/08 07:00:23;;;;;;;35.95;17.05;;;;;;;;;;4798294;29;20054;-71
2023/12/08 07:02:49;;;;;;;39.53;16.80;;;;;;;;;;4818996;29;20050;-71
2023/12/08 07:05:19;;;;;;;37.05;18.20;;;;;;;;;;4814772;29;20109;-71
2023/12/08 07:07:46;;;;;;;34.70;17.55;;;;;;;;;;4806820;29;20194;-73
2023/12/08 07:10:13;;;;;;;32.03;14.55;;;;;;;;;;4811049;29;20078;-72
2023/12/08 07:12:39;;;;;;;31.48;15.48;;;;;;;;;;4815152;29;20417;-70
2023/12/08 07:15:05;;;;;;;31.73;16.42;;;;;;;;;;4830573;29;20048;-69
2023/12/08 07:17:31;;;;;;;34.25;16.13;;;;;;;;;;4812464;29;20058;-69
2023/12/08 07:19:57;;;;;;;36.72;17.10;;;;;;;;;;4800703;29;20390;-69
2023/12/08 07:22:23;;;;;;;40.83;18.67;;;;;;;;;;4815624;29;20048;-69
2023/12/08 07:24:49;;;;;;;34.22;17.42;;;;;;;;;;4816426;29;20054;-69
2023/12/08 07:27:15;;;;;;;35.70;17.52;;;;;;;;;;4815552;29;20525;-68
2023/12/08 07:29:41;;;;;;;38.03;17.77;;;;;;;;;;4815236;29;20403;-69
2023/12/08 07:32:07;;;;;;;35.85;18.60;;;;;;;;;;4824090;29;20137;-68
2023/12/08 07:34:33;;;;;;;39.65;18.20;;;;;;;;;;4811674;29;20050;-69
2023/12/08 07:36:59;;;;;;;35.65;17.65;;;;;;;;;;4810258;29;20542;-69
2023/12/08 07:39:25;;;;;;;39.58;19.85;;;;;;;;;;4815560;29;20049;-69
2023/12/08 07:41:51;;;;;;;28.98;13.77;;;;;;;;;;4814379;29;20114;-68
2023/12/08 07:44:17;;;;;;;35.15;17.90;;;;;;;;;;4827421;29;20044;-70
2023/12/08 07:46:43;;;;;;;40.95;19.50;;;;;;;;;;4816055;29;20049;-69
2023/12/08 07:49:09;;;;;;;32.05;16.17;;;;;;;;;;4830175;29;20052;-69
2023/12/08 07:51:35;;;;;;;35.70;17.92;;;;;;;;;;4812081;29;20501;-68
2023/12/08 07:54:03;;;;;;;37.67;18.95;;;;;;;;;;4815350;29;20149;-69
2023/12/08 07:56:29;;;;;;;36.42;18.58;;;;;;;;;;4813748;29;20467;-69
2023/12/08 07:58:55;;;;;;;37.28;19.48;;;;;;;;;;4813672;29;20053;-69
2023/12/08 08:01:21;;;;;;;32.53;16.27;;;;;;;;;;4832585;29;20049;-69
2023/12/08 08:03:47;;;;;;;39.67;18.92;;;;;;;;;;4830444;29;20578;-69
2023/12/08 08:06:13;;;;;;;39.47;18.88;;;;;;;;;;4813331;29;20073;-70
2023/12/08 08:08:39;;;;;;;36.80;17.60;;;;;;;;;;4815202;29;20073;-70
2023/12/08 08:11:05;;;;;;;38.08;17.55;;;;;;;;;;4812838;29;20137;-70
2023/12/08 08:13:31;;;;;;;36.05;18.25;;;;;;;;;;4808811;29;20050;-70
2023/12/08 08:15:57;;;;;;;39.78;18.17;;;;;;;;;;4816942;29;20564;-70
2023/12/08 08:18:23;;;;;;;33.65;17.83;;;;;;;;;;4828950;29;20058;-70
2023/12/08 08:20:49;;;;;;;37.80;17.67;;;;;;;;;;4826719;29;20281;-70
2023/12/08 08:23:16;;;;;;;36.90;18.13;;;;;;;;;;4815906;29;20568;-69
2023/12/08 08:25:42;;;;;;;40.25;16.30;;;;;;;;;;4813533;29;20058;-70
2023/12/08 08:28:08;;;;;;;37.25;18.00;;;;;;;;;;4815434;29;20053;-70
2023/12/08 08:30:34;;;;;;;37.55;16.52;;;;;;;;;;4827002;29;20053;-69
2023/12/08 08:33:00;;;;;;;40.00;17.08;;;;;;;;;;4810663;29;20858;-70
2023/12/08 08:35:26;;;;;;;32.00;17.08;;;;;;;;;;4816792;29;20106;-70
2023/12/08 08:37:52;;;;;;;35.78;17.30;;;;;;;;;;4800390;29;20050;-70
2023/12/08 08:40:19;;;;;;;37.03;17.92;;;;;;;;;;4831509;29;20050;-70
2023/12/08 08:42:45;;;;;;;35.63;16.98;;;;;;;;;;4817017;29;20475;-70
2023/12/08 08:45:11;;;;;;;41.55;19.00;;;;;;;;;;4814952;29;20045;-70
2023/12/08 08:47:37;;;;;;;35.70;17.45;;;;;;;;;;4832479;29;20049;-70
2023/12/08 08:50:03;;;;;;;36.03;16.27;;;;;;;;;;4817370;29;20066;-69
2023/12/08 08:52:29;;;;;;;35.00;17.05;;;;;;;;;;4799393;29;20102;-69
2023/12/08 08:54:55;;;;;;;32.33;14.25;;;;;;;;;;4833350;29;20079;-69
2023/12/08 08:57:21;;;;;;;35.28;16.40;;;;;;;;;;4813866;29;20069;-69
2023/12/08 08:59:47;;;;;;;32.55;16.55;;;;;;;;;;4813460;29;20042;-69
2023/12/08 09:02:13;;;;;;;37.03;17.85;;;;;;;;;;4814681;29;20050;-69
2023/12/08 09:04:39;;;;;;;35.60;16.92;;;;;;;;;;4814863;29;20054;-70
2023/12/08 09:07:05;;;;;;;37.60;17.40;;;;;;;;;;4830425;29;20081;-70
2023/12/08 09:09:31;;;;;;;44.20;18.63;;;;;;;;;;4815133;29;20145;-70
2023/12/08 09:11:57;;;;;;;40.35;18.40;;;;;;;;;;4817094;29;20050;-69
2023/12/08 09:14:23;;;;;;;36.13;16.77;;;;;;;;;;4814537;29;20106;-70
2023/12/08 09:16:49;;;;;;;34.10;16.95;;;;;;;;;;4815179;29;20145;-69
2023/12/08 09:19:15;;;;;;;38.38;16.25;;;;;;;;;;4817747;29;20057;-69
2023/12/08 09:21:41;;;;;;;34.72;15.18;;;;;;;;;;4817585;29;20610;-70
2023/12/08 09:24:07;;;;;;;33.85;16.13;;;;;;;;;;4820421;29;20416;-70
2023/12/08 09:26:33;;;;;;;31.48;14.20;;;;;;;;;;4815015;29;20050;-70
2023/12/08 09:28:59;;;;;;;34.55;16.55;;;;;;;;;;4818180;29;20068;-70
2023/12/08 09:31:25;;;;;;;35.58;16.33;;;;;;;;;;4812252;29;20516;-70
2023/12/08 09:33:52;;;;;;;41.60;17.42;;;;;;;;;;4807057;29;20129;-70
2023/12/08 09:36:19;;;;;;;37.10;18.17;;;;;;;;;;4818313;29;20061;-70
2023/12/08 09:38:45;;;;;;;35.65;16.60;;;;;;;;;;4817080;29;20605;-70
2023/12/08 09:41:13;;;;;;;34.85;15.88;;;;;;;;;;4809891;29;20460;-70
2023/12/08 09:43:43;;;;;;;36.15;16.92;;;;;;;;;;4819097;29;20161;-70
2023/12/08 09:46:09;;;;;;;33.85;16.15;;;;;;;;;;4830548;29;20064;-70
2023/12/08 09:48:37;;;;;;;33.03;16.27;;;;;;;;;;4811207;29;20053;-70
2023/12/08 09:51:04;;;;;;;35.05;16.95;;;;;;;;;;4817459;29;20065;-70
2023/12/08 09:53:32;;;;;;;34.47;16.73;;;;;;;;;;4813564;29;20060;-70
2023/12/08 09:55:58;;;;;;;37.83;18.02;;;;;;;;;;4819461;29;20397;-70
2023/12/08 09:58:25;;;;;;;34.67;17.40;;;;;;;;;;4816118;29;20149;-70
2023/12/08 10:00:51;;;;;;;38.13;16.67;;;;;;;;;;4816397;29;20099;-70
2023/12/08 10:03:17;;;;;;;33.08;17.52;;;;;;;;;;4814138;29;20464;-70
2023/12/08 10:05:43;;;;;;;36.22;16.33;;;;;;;;;;4817477;29;20046;-70
2023/12/08 10:08:10;;;;;;;34.28;16.95;;;;;;;;;;4819687;29;20052;-70
2023/12/08 10:10:37;;;;;;;33.30;16.38;;;;;;;;;;4818377;29;20493;-70
2023/12/08 10:13:03;;;;;;;41.78;18.63;;;;;;;;;;4816599;29;20050;-70
2023/12/08 10:15:29;;;;;;;38.47;17.38;;;;;;;;;;4801468;29;20042;-70
2023/12/08 10:17:55;;;;;;;40.38;18.52;;;;;;;;;;4816106;29;20050;-70
2023/12/08 10:20:21;;;;;;;41.95;19.65;;;;;;;;;;4824852;29;20524;-70
2023/12/08 10:23:25;;;;;;;42.05;19.63;;;;;;;;;;4841427;29;20412;-71
2023/12/08 10:25:51;;;;;;;42.40;18.60;;;;;;;;;;4830816;29;20133;-71
2023/12/08 10:28:22;;;;;;;41.88;20.23;;;;;;;;;;4815812;29;20045;-71
2023/12/08 10:30:51;;;;;;;36.15;16.02;;;;;;;;;;4818730;29;20110;-71
2023/12/08 10:33:21;;;;;;;42.40;18.48;;;;;;;;;;4832052;29;20046;-71
2023/12/08 10:35:48;;;;;;;48.78;20.88;;;;;;;;;;4817710;29;20361;-71
2023/12/08 10:38:14;;;;;;;40.60;18.35;;;;;;;;;;4814383;29;20057;-71
2023/12/08 10:40:49;;;;;;;43.65;18.83;;;;;;;;;;4811221;29;20106;-71
2023/12/08 10:43:25;;;;;;;40.33;17.05;;;;;;;;;;4816960;29;20164;-70
2023/12/08 10:45:55;;;;;;;49.60;19.77;;;;;;;;;;4816097;29;20136;-71
2023/12/08 10:48:21;;;;;;;37.33;16.30;;;;;;;;;;4815390;29;20046;-71
2023/12/08 10:50:48;;;;;;;47.55;19.45;;;;;;;;;;4805673;29;20074;-70
2023/12/08 10:53:16;;;;;;;56.90;22.40;;;;;;;;;;4814572;29;20505;-71
2023/12/08 10:55:42;;;;;;;48.83;19.73;;;;;;;;;;4814991;29;20099;-71
2023/12/08 10:58:14;;;;;;;51.35;20.67;;;;;;;;;;4815440;29;20054;-69
2023/12/08 11:00:41;;;;;;;47.92;20.73;;;;;;;;;;4801503;29;20412;-70
2023/12/08 11:03:09;;;;;;;52.60;22.30;;;;;;;;;;4818089;29;20166;-70
2023/12/08 11:05:37;;;;;;;48.45;21.08;;;;;;;;;;4830078;29;20056;-69
2023/12/08 11:08:04;;;;;;;55.25;20.65;;;;;;;;;;4817101;29;20157;-69
2023/12/08 11:10:31;;;;;;;61.58;24.17;;;;;;;;;;4819433;29;20053;-69
2023/12/08 11:13:00;;;;;;;46.63;21.30;;;;;;;;;;4817149;29;20165;-69
2023/12/08 11:15:28;;;;;;;50.50;18.98;;;;;;;;;;4816141;29;20057;-69
2023/12/08 11:17:59;;;;;;;54.55;21.52;;;;;;;;;;4829527;29;20060;-69
2023/12/08 11:20:25;;;;;;;54.00;21.45;;;;;;;;;;4824960;29;20112;-69
2023/12/08 11:22:52;;;;;;;58.40;22.90;;;;;;;;;;4823795;29;20056;-69
2023/12/08 11:25:22;;;;;;;52.95;22.73;;;;;;;;;;4815727;29;20061;-70
2023/12/08 11:27:51;;;;;;;51.35;22.63;;;;;;;;;;4830305;29;20045;-69
2023/12/08 11:30:25;;;;;;;60.78;23.98;;;;;;;;;;4821412;29;20053;-69
2023/12/08 11:33:05;;;;;;;45.53;19.38;;;;;;;;;;4814695;29;20054;-70
2023/12/08 11:35:31;;;;;;;62.17;24.05;;;;;;;;;;4816144;29;20093;-70
2023/12/08 11:37:57;;;;;;;55.38;21.63;;;;;;;;;;4814512;29;20096;-70
2023/12/08 11:40:23;;;;;;;59.17;21.20;;;;;;;;;;4817240;29;20129;-70
2023/12/08 11:42:51;;;;;;;59.00;23.95;;;;;;;;;;4816233;29;20046;-69
2023/12/08 11:45:18;;;;;;;59.13;23.83;;;;;;;;;;4831102;29;20046;-69
2023/12/08 11:47:44;;;;;;;52.90;23.70;;;;;;;;;;4798952;29;20513;-71
2023/12/08 11:50:11;;;;;;;60.55;23.23;;;;;;;;;;4820258;29;20067;-72
2023/12/08 11:52:37;;;;;;;54.45;21.45;;;;;;;;;;4816622;29;20115;-70
2023/12/08 11:55:19;;;;;;;56.50;22.23;;;;;;;;;;4815155;29;20165;-71
2023/12/08 11:57:48;;;;;;;61.67;23.23;;;;;;;;;;4811920;29;20050;-70
2023/12/08 12:00:19;;;;;;;54.05;23.17;;;;;;;;;;4812500;29;20125;-70
2023/12/08 12:02:46;;;;;;;63.10;24.60;;;;;;;;;;4820008;29;20446;-69
2023/12/08 12:05:12;;;;;;;61.33;24.02;;;;;;;;;;4810751;29;20129;-70
2023/12/08 12:07:39;;;;;;;57.45;22.42;;;;;;;;;;4813968;29;20401;-70
2023/12/08 12:10:12;;;;;;;55.15;22.73;;;;;;;;;;4819541;29;20508;-68
2023/12/08 12:12:42;;;;;;;59.28;24.60;;;;;;;;;;4824449;29;20516;-68
2023/12/08 12:15:10;;;;;;;58.72;23.02;;;;;;;;;;4815395;29;20049;-69
2023/12/08 12:17:38;;;;;;;64.00;25.08;;;2.60;99.90;;;;;;4828473;29;20049;-68
2023/12/08 12:20:04;;;;;;;59.13;26.27;;;;;;;;;;4817250;29;20236;-72
2023/12/08 12:22:30;;;;;;;66.30;25.08;;;;;;;;;;4812771;29;20052;-71
2023/12/08 12:24:56;;;;;;;62.45;22.88;;;;;;;;;;4812399;29;20050;-69
2023/12/08 12:27:22;;;;;;;64.70;24.48;;;;;;;;;;4827804;29;20072;-71
2023/12/08 12:29:48;;;;;;;54.38;21.85;;;;;;;;;;4813825;29;20046;-71
2023/12/08 12:32:14;;;;;;;66.10;25.83;;;;;;;;;;4813405;29;20631;-71
2023/12/08 12:34:40;;;;;;;67.05;25.17;;;;;;;;;;4810289;29;20049;-70
2023/12/08 12:37:08;;;;;;;75.45;25.27;;;;;;;;;;4809436;29;20110;-71
2023/12/08 12:39:34;;;;;;;66.38;26.38;;;;;;;;;;4812187;29;20133;-71
2023/12/08 12:42:34;;;;;;;73.85;24.55;;;;;;;;;;4815443;29;20105;-71
2023/12/08 12:45:01;;;;;;;64.35;25.00;;;;;;;;;;4815349;29;20046;-70
2023/12/08 12:47:27;;;;;;;74.03;25.90;;;;;;;;;;4811100;29;20054;-71
2023/12/08 12:53:24;;;;;;;60.97;24.30;;;;;;;;;;4833039;29;20077;-70
2023/12/08 12:55:50;;;;;;;62.08;22.48;;;;;;;;;;4814916;29;20058;-72
2023/12/08 13:03:21;;;;;;;52.58;22.77;;;;;;;;;;4830120;29;20053;-71
2023/12/08 13:05:56;;;;;;;53.58;18.95;;;;;;;;;;4815422;29;20057;-72
2023/12/08 13:08:22;;;;;;;62.15;22.80;;;;;;;;;;4811382;29;20189;-75
2023/12/08 13:10:48;;;;;;;64.43;24.60;;;;;;;;;;4814406;29;20153;-72
2023/12/08 13:13:14;;;;;;;55.25;23.10;;;;;;;;;;4815646;29;20072;-72
2023/12/08 13:21:39;;;;;;;59.13;23.33;;;;;;;;;;5058316;23;20500;-69
2023/12/08 13:24:05;;;;;;;62.67;23.20;;;;;;;;;;4831041;29;20154;-69
2023/12/08 13:26:31;;;;;;;64.05;23.15;;;;;;;;;;4815865;29;20060;-69
2023/12/08 13:28:57;;;;;;;69.63;24.98;;;;;;;;;;4831777;29;20069;-69
2023/12/08 13:31:23;;;;;;;61.10;24.00;;;;;;;;;;4819230;29;20053;-69
2023/12/08 13:37:37;;;;;;;63.70;23.73;;;;;;;;;;4854201;29;20060;-69
2023/12/08 13:40:04;;;;;;;60.25;23.77;;;;;;;;;;4819915;29;20787;-69
2023/12/08 13:42:30;;;;;;;70.78;25.30;;;;;;;;;;4821186;29;20094;-69
2023/12/08 13:44:56;;;;;;;73.72;24.70;;;;;;;;;;4814092;29;20049;-69
2023/12/08 13:47:22;;;;;;;62.72;22.88;;;;;;;;;;4831722;29;20148;-69
2023/12/08 13:49:49;;;;;;;74.43;25.25;;;;;;;;;;4812758;29;20133;-69
2023/12/08 13:52:15;;;;;;;71.18;24.30;;;;;;;;;;4825481;29;20126;-69
2023/12/08 13:54:41;;;;;;;60.25;24.75;;;;;;;;;;4801520;29;20057;-70
2023/12/08 13:57:07;;;;;;;79.88;27.77;;;;;;;;;;4824821;29;20726;-69
2023/12/08 13:59:33;;;;;;;64.22;23.85;;;;;;;;;;4813342;29;20772;-69
2023/12/08 14:01:59;;;;;;;76.15;26.60;;;;;;;;;;4832696;29;20153;-69
2023/12/08 14:04:26;;;;;;;74.90;24.58;;;;;;;;;;4829738;29;20454;-69
2023/12/08 14:06:52;;;;;;;88.13;27.60;;;;;;;;;;4813992;29;20058;-69
2023/12/08 14:09:18;;;;;;;93.20;29.15;;;;;;;;;;4814465;29;20405;-69
2023/12/08 14:11:44;;;;;;;102.47;29.80;;;;;;;;;;4817421;29;20061;-69
2023/12/08 14:14:10;;;;;;;81.78;27.00;;;;;;;;;;4833312;29;20084;-70
2023/12/08 14:16:36;;;;;;;65.38;24.02;;;;;;;;;;4832489;29;20054;-69
2023/12/08 14:19:02;;;;;;;91.25;29.00;;;;;;;;;;4815962;29;20061;-69
2023/12/08 14:21:29;;;;;;;91.97;26.98;;;;;;;;;;4831979;29;20058;-69
2023/12/08 14:23:55;;;;;;;88.20;26.52;;;;;;;;;;4835518;29;20080;-69
2023/12/08 14:26:21;;;;;;;90.78;29.73;;;;;;;;;;4820736;29;20199;-68
2023/12/08 14:28:47;;;;;;;96.00;27.90;;;;;;;;;;4816404;29;20056;-69
2023/12/08 14:31:13;;;;;;;108.55;32.63;;;;;;;;;;4831944;29;20116;-69
2023/12/08 14:33:39;;;;;;;84.95;28.75;;;;;;;;;;4833981;29;20651;-68
2023/12/08 14:36:05;;;;;;;84.63;26.02;;;;;;;;;;4815622;29;20050;-68
2023/12/08 14:38:32;;;;;;;65.47;23.08;;;;;;;;;;4833297;29;20501;-68
2023/12/08 14:40:58;;;;;;;112.25;32.45;;;;;;;;;;4813913;29;20089;-69